< < Back
Terminal Aerodrome Forecast


Current Version              Previous Versions:   1  2  3  4  5  6  7  8  9  

Terminal Aerodrome Forecast

439
FTUS42 KCHS 011100
TAFSAV
TAF
KSAV 011135Z 0112/0212 04004KT P6SM FEW250
     FM011800 11006KT P6SM SCT080
     FM020100 00000KT P6SM SCT250=

Latest METAR

537
SAUS80 KWBC 020000 RRA
MTRSAV
METAR KSAV 012353Z VRB04KT 10SM FEW080 SCT250 24/18 A2999 RMK AO2 SLP154
T02390178 10306 20239 53009


USA.gov is the U.S. government's official web portal to all federal, state and local government web resources and services.